Time;durP1;ratioP1;P1;durP2;ratioP2;P2;SDS_P1;SDS_P2;PMS_P1;PMS_P2;Temp;Humidity;BMP_temperature;BMP_pressure;BME280_temperature;BME280_humidity;BME280_pressure;Samples;Min_cycle;Max_cycle;Signal;HPM_P1;HPM_P2
2024/02/16 00:01:18;;;;;;;8.63;3.65;;;11.30;99.90;;;;;;5069663;28;20101;-58
2024/02/16 00:03:43;;;;;;;4.45;3.67;;;11.30;99.90;;;;;;5070621;28;20523;-58
2024/02/16 00:06:09;;;;;;;6.82;4.25;;;11.20;99.90;;;;;;5069534;28;20020;-58
2024/02/16 00:08:34;;;;;;;5.95;4.80;;;11.20;99.90;;;;;;5068174;28;20020;-58
2024/02/16 00:11:00;;;;;;;6.45;3.75;;;11.20;99.90;;;;;;5069928;28;20055;-58
2024/02/16 00:13:26;;;;;;;5.35;3.53;;;11.20;99.90;;;;;;5068059;28;20398;-58
2024/02/16 00:15:51;;;;;;;8.38;3.85;;;11.10;99.90;;;;;;5067752;28;20036;-58
2024/02/16 00:18:17;;;;;;;5.10;3.45;;;11.10;99.90;;;;;;5070120;28;20100;-58
2024/02/16 00:20:42;;;;;;;4.60;3.33;;;11.10;99.90;;;;;;5068087;28;20386;-58
2024/02/16 00:23:09;;;;;;;8.35;3.80;;;11.10;99.90;;;;;;5069756;28;20100;-58
2024/02/16 00:25:34;;;;;;;6.63;3.83;;;11.10;99.90;;;;;;5069163;28;20035;-59
2024/02/16 00:28:00;;;;;;;6.18;3.83;;;11.10;99.90;;;;;;5067950;28;20025;-59
2024/02/16 00:30:27;;;;;;;4.85;3.25;;;11.00;99.90;;;;;;5067583;28;20524;-59
2024/02/16 00:32:52;;;;;;;5.25;3.45;;;11.10;99.90;;;;;;5069702;28;20482;-59
2024/02/16 00:35:19;;;;;;;7.35;3.75;;;11.10;99.90;;;;;;5069040;28;20025;-58
2024/02/16 00:37:45;;;;;;;11.63;3.55;;;11.00;99.90;;;;;;5069210;28;20048;-59
2024/02/16 00:40:11;;;;;;;4.65;3.35;;;11.10;99.90;;;;;;5067953;28;20033;-58
2024/02/16 00:42:37;;;;;;;4.32;3.50;;;11.00;99.90;;;;;;5069098;28;20426;-58
2024/02/16 00:45:03;;;;;;;6.05;3.42;;;11.10;99.90;;;;;;5068337;28;20211;-58
2024/02/16 00:47:29;;;;;;;7.85;2.70;;;11.10;99.90;;;;;;5070755;28;20059;-59
2024/02/16 00:49:56;;;;;;;6.68;2.70;;;11.10;99.90;;;;;;5068812;28;20398;-59
2024/02/16 00:52:22;;;;;;;4.65;3.05;;;11.10;99.90;;;;;;5068347;28;20032;-59
2024/02/16 00:54:48;;;;;;;4.75;3.17;;;11.10;99.90;;;;;;5069312;28;20319;-59
2024/02/16 00:57:14;;;;;;;8.75;4.57;;;11.10;99.90;;;;;;5068365;28;20105;-58
2024/02/16 00:59:40;;;;;;;9.02;3.33;;;11.10;99.90;;;;;;5069058;28;20304;-59
2024/02/16 01:02:06;;;;;;;4.30;3.22;;;11.10;99.90;;;;;;5067569;28;20377;-58
2024/02/16 01:04:32;;;;;;;3.95;2.90;;;11.10;99.90;;;;;;5068887;28;20072;-58
2024/02/16 01:06:58;;;;;;;7.05;3.30;;;11.10;99.90;;;;;;5067444;28;20108;-59
2024/02/16 01:09:23;;;;;;;8.50;3.63;;;11.10;99.90;;;;;;5068869;28;20580;-59
2024/02/16 01:11:49;;;;;;;4.63;2.85;;;11.10;99.90;;;;;;5068957;28;20501;-59
2024/02/16 01:14:15;;;;;;;8.27;3.00;;;11.10;99.90;;;;;;5067772;28;20082;-59
2024/02/16 01:16:40;;;;;;;3.13;2.33;;;11.10;99.90;;;;;;5068044;28;20385;-59
2024/02/16 01:19:07;;;;;;;6.13;2.97;;;11.10;99.90;;;;;;5068175;28;20028;-59
2024/02/16 01:21:33;;;;;;;8.00;2.90;;;11.10;99.90;;;;;;5068662;28;20051;-59
2024/02/16 01:24:00;;;;;;;4.55;3.10;;;11.10;99.90;;;;;;5066965;28;20052;-58
2024/02/16 01:26:26;;;;;;;5.45;2.90;;;11.10;99.90;;;;;;5068362;28;20051;-59
2024/02/16 01:28:52;;;;;;;8.13;3.03;;;11.10;99.90;;;;;;5067823;28;20060;-58
2024/02/16 01:31:17;;;;;;;6.32;2.70;;;11.20;99.90;;;;;;5067638;28;20025;-58
2024/02/16 01:33:43;;;;;;;5.70;3.42;;;11.20;99.90;;;;;;5066475;28;20021;-58
2024/02/16 01:36:08;;;;;;;7.20;3.92;;;11.20;99.90;;;;;;5068112;28;20132;-58
2024/02/16 01:38:34;;;;;;;7.68;3.15;;;11.10;99.90;;;;;;5068644;28;20398;-59
2024/02/16 01:41:01;;;;;;;9.05;3.42;;;11.10;99.90;;;;;;5067858;28;20021;-58
2024/02/16 01:43:27;;;;;;;8.40;3.42;;;11.10;99.90;;;;;;5067929;28;20055;-59
2024/02/16 01:45:53;;;;;;;4.85;2.65;;;11.10;99.90;;;;;;5066788;28;20048;-59
2024/02/16 01:48:18;;;;;;;7.70;3.65;;;11.10;99.90;;;;;;5067279;28;20035;-59
2024/02/16 01:50:45;;;;;;;7.57;3.03;;;11.10;99.90;;;;;;5067860;28;20055;-58
2024/02/16 01:53:19;;;;;;;6.60;3.50;;;11.10;99.90;;;;;;5067511;28;20056;-58
2024/02/16 01:55:46;;;;;;;6.35;2.80;;;11.10;99.90;;;;;;5066556;28;20656;-58
2024/02/16 01:58:11;;;;;;;5.88;3.42;;;11.10;99.90;;;;;;5068707;28;20123;-58
2024/02/16 02:00:37;;;;;;;4.13;2.47;;;11.10;99.90;;;;;;5070777;28;20099;-58
2024/02/16 02:03:03;;;;;;;6.20;3.30;;;11.00;99.90;;;;;;5069170;28;20517;-58
2024/02/16 02:05:29;;;;;;;3.45;2.95;;;11.00;99.90;;;;;;5068481;28;20065;-58
2024/02/16 02:07:54;;;;;;;4.65;3.00;;;11.00;99.90;;;;;;5070231;28;20073;-58
2024/02/16 02:10:22;;;;;;;6.60;3.05;;;11.00;99.90;;;;;;5070207;28;20025;-59
2024/02/16 02:12:47;;;;;;;4.90;3.15;;;11.00;99.90;;;;;;5069974;28;20024;-58
2024/02/16 02:15:13;;;;;;;5.65;3.30;;;11.00;99.90;;;;;;5069639;28;20017;-58
2024/02/16 02:17:39;;;;;;;3.85;2.75;;;10.90;99.90;;;;;;5073185;28;20016;-58
2024/02/16 02:20:08;;;;;;;4.90;2.80;;;10.90;99.90;;;;;;5070313;28;20070;-59
2024/02/16 02:22:33;;;;;;;7.53;3.15;;;10.90;99.90;;;;;;5070268;28;20024;-59
2024/02/16 02:24:59;;;;;;;6.65;3.20;;;10.90;99.90;;;;;;5069337;28;20458;-59
2024/02/16 02:27:25;;;;;;;6.88;3.10;;;10.90;99.90;;;;;;5068082;28;20055;-59
2024/02/16 02:29:51;;;;;;;8.43;3.90;;;10.90;99.90;;;;;;5070063;28;20490;-59
2024/02/16 02:32:16;;;;;;;3.80;2.80;;;10.80;99.90;;;;;;5078058;28;20024;-59
2024/02/16 02:34:42;;;;;;;5.35;2.55;;;10.90;99.90;;;;;;5072783;28;20024;-59
2024/02/16 02:37:07;;;;;;;3.90;2.63;;;10.80;99.90;;;;;;5075369;28;20028;-59
2024/02/16 02:39:33;;;;;;;4.13;2.83;;;10.80;99.90;;;;;;5087797;28;20031;-59
2024/02/16 02:41:59;;;;;;;11.05;3.85;;;10.80;99.90;;;;;;5076376;28;20111;-59
2024/02/16 02:44:25;;;;;;;3.97;2.83;;;10.80;99.90;;;;;;5076432;28;20017;-59
2024/02/16 02:46:51;;;;;;;6.38;3.53;;;10.80;99.90;;;;;;5081432;28;20038;-59
2024/02/16 02:49:17;;;;;;;4.22;2.80;;;10.80;99.90;;;;;;5089768;28;20026;-59
2024/02/16 02:51:43;;;;;;;7.20;3.67;;;10.80;99.90;;;;;;5080912;28;20020;-59
2024/02/16 02:54:08;;;;;;;4.90;3.05;;;10.70;99.90;;;;;;5079469;28;20111;-59
2024/02/16 02:56:34;;;;;;;4.25;2.80;;;10.70;99.90;;;;;;5080604;28;20024;-59
2024/02/16 02:58:59;;;;;;;5.60;3.20;;;10.70;99.90;;;;;;5081397;28;20099;-59
2024/02/16 03:01:25;;;;;;;6.47;2.83;;;10.70;99.90;;;;;;5080492;28;20503;-59
2024/02/16 03:03:50;;;;;;;5.90;2.83;;;10.70;99.90;;;;;;5076739;28;20020;-59
2024/02/16 03:06:19;;;;;;;4.85;2.97;;;10.60;99.90;;;;;;5084774;28;20028;-59
2024/02/16 03:08:45;;;;;;;6.55;3.58;;;10.60;99.90;;;;;;5084759;28;20514;-59
2024/02/16 03:11:10;;;;;;;9.48;3.92;;;10.60;99.90;;;;;;5069310;28;20051;-59
2024/02/16 03:13:36;;;;;;;3.85;2.53;;;10.60;99.90;;;;;;5069201;28;20436;-59
2024/02/16 03:16:02;;;;;;;3.83;2.92;;;10.60;99.90;;;;;;5080923;28;20485;-59
2024/02/16 03:18:31;;;;;;;3.63;2.55;;;10.50;99.90;;;;;;5070256;28;20211;-59
2024/02/16 03:20:57;;;;;;;4.30;2.70;;;10.50;99.90;;;;;;5080501;28;20027;-59
2024/02/16 03:23:23;;;;;;;6.35;3.45;;;10.50;99.90;;;;;;5070371;28;20028;-58
2024/02/16 03:25:48;;;;;;;6.32;3.03;;;10.50;99.90;;;;;;5074886;28;20028;-58
2024/02/16 03:28:15;;;;;;;6.05;3.85;;;10.50;99.90;;;;;;5070410;28;20020;-59
2024/02/16 03:30:41;;;;;;;4.78;2.70;;;10.50;99.90;;;;;;5070198;28;20024;-59
2024/02/16 03:33:06;;;;;;;4.95;3.05;;;10.50;99.90;;;;;;5065501;28;20117;-59
2024/02/16 03:35:32;;;;;;;4.72;2.13;;;10.50;99.90;;;;;;5070050;28;20035;-59
2024/02/16 03:37:57;;;;;;;3.85;2.40;;;10.40;99.90;;;;;;5066672;28;20020;-59
2024/02/16 03:40:24;;;;;;;3.42;2.47;;;10.40;99.90;;;;;;5067947;28;20035;-59
2024/02/16 03:42:50;;;;;;;6.00;3.00;;;10.40;99.90;;;;;;5072474;28;20027;-59
2024/02/16 03:45:16;;;;;;;7.57;3.13;;;10.30;99.90;;;;;;5070547;28;20025;-59
2024/02/16 03:47:41;;;;;;;13.60;3.20;;;10.40;99.90;;;;;;5070442;28;20033;-59
2024/02/16 03:50:07;;;;;;;5.30;3.33;;;10.40;99.90;;;;;;5070510;28;20029;-59
2024/02/16 03:52:33;;;;;;;9.82;3.50;;;10.30;99.90;;;;;;5084172;28;20031;-59
2024/02/16 03:54:59;;;;;;;6.15;3.00;;;10.30;99.90;;;;;;5074731;28;20020;-59
2024/02/16 03:57:24;;;;;;;7.28;3.10;;;10.30;99.90;;;;;;5074002;28;20023;-59
2024/02/16 03:59:50;;;;;;;10.18;2.78;;;10.30;99.90;;;;;;5071482;28;20384;-59
2024/02/16 04:02:15;;;;;;;4.38;3.10;;;10.30;99.90;;;;;;5079845;28;20020;-59
2024/02/16 04:04:41;;;;;;;5.68;2.67;;;10.30;99.90;;;;;;5067690;28;20385;-59
2024/02/16 04:07:08;;;;;;;6.72;3.00;;;10.30;99.90;;;;;;5072247;28;20027;-59
2024/02/16 04:09:34;;;;;;;5.63;3.20;;;10.30;99.90;;;;;;5077587;28;20012;-59
2024/02/16 04:12:00;;;;;;;6.10;2.60;;;10.30;99.90;;;;;;5072562;28;20069;-59
2024/02/16 04:14:25;;;;;;;6.25;2.88;;;10.30;99.90;;;;;;5083569;28;20106;-59
2024/02/16 04:16:51;;;;;;;4.72;2.60;;;10.20;99.90;;;;;;5068067;28;20132;-59
2024/02/16 04:19:17;;;;;;;7.45;2.47;;;10.20;99.90;;;;;;5074430;28;20067;-59
2024/02/16 04:21:42;;;;;;;4.07;2.47;;;10.20;99.90;;;;;;5067891;28;20024;-59
2024/02/16 04:24:08;;;;;;;5.60;2.83;;;10.20;99.90;;;;;;5080688;28;20016;-59
2024/02/16 04:26:33;;;;;;;7.03;2.88;;;10.20;99.90;;;;;;5076019;28;20016;-59
2024/02/16 04:28:59;;;;;;;6.82;2.72;;;10.20;99.90;;;;;;5081546;28;20028;-59
2024/02/16 04:31:24;;;;;;;4.97;2.67;;;10.10;99.90;;;;;;5067649;28;20025;-59
2024/02/16 04:33:50;;;;;;;3.70;2.53;;;10.20;99.90;;;;;;5072958;28;20025;-59
2024/02/16 04:36:16;;;;;;;4.10;2.90;;;10.10;99.90;;;;;;5074638;28;20017;-59
2024/02/16 04:38:41;;;;;;;6.60;2.80;;;10.10;99.90;;;;;;5076215;28;20170;-59
2024/02/16 04:41:08;;;;;;;5.65;2.72;;;10.10;99.90;;;;;;5080712;28;20497;-59
2024/02/16 04:43:34;;;;;;;4.88;2.50;;;10.10;99.90;;;;;;5074748;28;20027;-59
2024/02/16 04:46:00;;;;;;;4.40;2.60;;;10.10;99.90;;;;;;5077959;28;20028;-59
2024/02/16 04:48:26;;;;;;;3.83;2.50;;;10.10;99.90;;;;;;5077381;28;20150;-59
2024/02/16 04:50:51;;;;;;;6.18;2.75;;;10.10;99.90;;;;;;5070356;28;20390;-59
2024/02/16 04:53:17;;;;;;;5.88;2.60;;;10.00;99.90;;;;;;5071725;28;20020;-59
2024/02/16 04:55:42;;;;;;;2.85;2.38;;;10.00;99.90;;;;;;5068559;28;20031;-59
2024/02/16 04:58:11;;;;;;;3.72;2.15;;;10.00;99.90;;;;;;5078167;28;20026;-59
2024/02/16 05:00:37;;;;;;;4.53;2.58;;;10.00;99.90;;;;;;5075650;28;20028;-59
2024/02/16 05:03:03;;;;;;;4.50;2.70;;;9.90;99.90;;;;;;5067558;28;20020;-59
2024/02/16 05:05:28;;;;;;;4.65;2.63;;;9.90;99.90;;;;;;5074182;28;20020;-59
2024/02/16 05:07:54;;;;;;;5.57;2.35;;;9.90;99.90;;;;;;5077569;28;20445;-59
2024/02/16 05:10:19;;;;;;;2.97;2.10;;;9.80;99.90;;;;;;5077780;28;20465;-59
2024/02/16 05:12:45;;;;;;;4.15;2.38;;;9.80;99.90;;;;;;5075365;28;20108;-59
2024/02/16 05:15:13;;;;;;;5.25;2.35;;;9.80;99.90;;;;;;5077495;28;20103;-59
2024/02/16 05:17:39;;;;;;;5.20;2.75;;;9.80;99.90;;;;;;5074802;28;20016;-59
2024/02/16 05:20:15;;;;;;;6.47;3.08;;;9.80;99.90;;;;;;5077124;28;20024;-59
2024/02/16 05:22:45;;;;;;;4.78;2.67;;;9.80;99.90;;;;;;5075559;28;20082;-59
2024/02/16 05:25:14;;;;;;;5.55;3.20;;;9.90;99.90;;;;;;5076541;28;20208;-59
2024/02/16 05:27:40;;;;;;;8.18;2.80;;;9.90;99.90;;;;;;5073504;28;20393;-59
2024/02/16 05:30:08;;;;;;;3.00;2.22;;;9.90;99.90;;;;;;5078234;28;20030;-59
2024/02/16 05:32:37;;;;;;;6.53;3.10;;;10.00;99.90;;;;;;5085215;28;20085;-58
2024/02/16 05:35:11;;;;;;;3.53;2.60;;;10.00;99.90;;;;;;5071340;28;20031;-56
2024/02/16 05:37:55;;;;;;;4.78;2.67;;;10.00;99.90;;;;;;5070735;28;20020;-56
2024/02/16 05:40:30;;;;;;;3.90;2.47;;;10.00;99.90;;;;;;5083728;28;20025;-56
2024/02/16 05:43:00;;;;;;;4.03;2.65;;;10.00;99.90;;;;;;5078286;28;20543;-56
2024/02/16 05:45:28;;;;;;;3.17;2.22;;;10.00;99.90;;;;;;5079465;28;20061;-56
2024/02/16 05:47:54;;;;;;;4.70;2.40;;;10.00;99.90;;;;;;5076941;28;20036;-56
2024/02/16 05:50:22;;;;;;;3.20;2.33;;;10.00;99.90;;;;;;5083257;28;20020;-56
2024/02/16 05:52:48;;;;;;;3.22;1.98;;;10.00;99.90;;;;;;5076844;28;20032;-56
2024/02/16 05:55:14;;;;;;;4.07;2.13;;;10.00;99.90;;;;;;5074872;28;20021;-56
2024/02/16 05:57:39;;;;;;;5.03;2.17;;;10.00;99.90;;;;;;5070932;28;20048;-56
2024/02/16 06:00:07;;;;;;;5.78;2.35;;;10.00;99.90;;;;;;5076454;28;20051;-56
2024/02/16 06:02:33;;;;;;;2.55;2.22;;;10.00;99.90;;;;;;5083003;28;20020;-56
2024/02/16 06:05:03;;;;;;;3.67;2.25;;;10.00;99.90;;;;;;5079182;28;20328;-56
2024/02/16 06:07:29;;;;;;;5.07;2.58;;;10.00;99.90;;;;;;5072861;28;20373;-56
2024/02/16 06:09:56;;;;;;;3.15;2.10;;;9.90;99.90;;;;;;5078728;28;20032;-56
2024/02/16 06:12:21;;;;;;;2.20;2.00;;;9.90;99.90;;;;;;5078378;28;20055;-56
2024/02/16 06:14:48;;;;;;;4.07;2.35;;;9.90;99.90;;;;;;5083389;28;20033;-56
2024/02/16 06:17:14;;;;;;;2.92;2.42;;;9.90;99.90;;;;;;5074731;28;20032;-56
2024/02/16 06:19:40;;;;;;;3.38;2.35;;;9.90;99.90;;;;;;5069141;28;20094;-56
2024/02/16 06:22:08;;;;;;;4.30;2.40;;;9.90;99.90;;;;;;5069818;28;20035;-55
2024/02/16 06:24:33;;;;;;;5.43;2.60;;;9.90;99.90;;;;;;5067833;28;20032;-56
2024/02/16 06:26:59;;;;;;;2.92;2.30;;;9.80;99.90;;;;;;5069456;28;20021;-56
2024/02/16 06:29:24;;;;;;;4.47;2.50;;;9.90;99.90;;;;;;5069742;28;20162;-57
2024/02/16 06:31:50;;;;;;;5.47;2.60;;;9.90;99.90;;;;;;5068449;28;20031;-56
2024/02/16 06:34:16;;;;;;;6.28;2.75;;;9.90;99.90;;;;;;5075415;28;20013;-56
2024/02/16 06:36:44;;;;;;;3.00;2.10;;;9.90;99.90;;;;;;5077325;28;20223;-56
2024/02/16 06:39:11;;;;;;;3.15;2.40;;;9.90;99.90;;;;;;5078116;28;20036;-56
2024/02/16 06:41:37;;;;;;;4.80;2.50;;;9.80;99.90;;;;;;5079414;28;20056;-56
2024/02/16 06:44:04;;;;;;;3.83;2.53;;;9.80;99.90;;;;;;5068273;28;20040;-56
2024/02/16 06:46:29;;;;;;;3.40;2.60;;;9.80;99.90;;;;;;5068664;28;20025;-56
2024/02/16 06:48:58;;;;;;;4.70;2.75;;;9.80;99.90;;;;;;5067242;28;20024;-56
2024/02/16 06:51:25;;;;;;;6.25;3.05;;;9.80;99.90;;;;;;5074896;28;20024;-56
2024/02/16 06:53:51;;;;;;;4.22;2.45;;;9.80;99.90;;;;;;5075170;28;20099;-57
2024/02/16 06:56:18;;;;;;;5.72;2.47;;;9.80;99.90;;;;;;5080263;28;20031;-56
2024/02/16 06:58:44;;;;;;;3.70;2.65;;;9.80;99.90;;;;;;5076216;28;20099;-56
2024/02/16 07:01:09;;;;;;;6.18;2.75;;;9.70;99.90;;;;;;5077972;28;20051;-56
2024/02/16 07:03:38;;;;;;;5.40;3.42;;;9.80;99.90;;;;;;5078773;28;20043;-56
2024/02/16 07:06:04;;;;;;;4.28;2.58;;;9.80;99.90;;;;;;5077762;28;20020;-56
2024/02/16 07:08:29;;;;;;;4.82;2.80;;;9.70;99.90;;;;;;5071847;28;20024;-56
2024/02/16 07:10:56;;;;;;;5.47;3.45;;;9.80;99.90;;;;;;5072690;28;20028;-56
2024/02/16 07:13:22;;;;;;;4.47;3.25;;;9.80;99.90;;;;;;5068172;28;20021;-56
2024/02/16 07:15:48;;;;;;;6.55;3.22;;;9.80;99.90;;;;;;5075193;28;20029;-56
2024/02/16 07:18:13;;;;;;;5.82;3.10;;;9.80;99.90;;;;;;5079359;28;20032;-56
2024/02/16 07:20:39;;;;;;;5.90;3.50;;;9.80;99.90;;;;;;5073377;28;20031;-56
2024/02/16 07:23:05;;;;;;;4.47;3.25;;;9.90;99.90;;;;;;5082335;28;20168;-56
2024/02/16 07:25:31;;;;;;;6.63;4.03;;;9.90;99.90;;;;;;5065564;28;20059;-57
2024/02/16 07:27:56;;;;;;;6.00;3.70;;;9.90;99.90;;;;;;5068965;28;20020;-56
2024/02/16 07:30:22;;;;;;;6.57;3.25;;;10.00;99.90;;;;;;5080397;28;20028;-56
2024/02/16 07:32:52;;;;;;;4.47;3.25;;;10.00;99.90;;;;;;5066291;28;20024;-56
2024/02/16 07:35:18;;;;;;;9.30;3.58;;;10.10;99.90;;;;;;5066825;28;20072;-56
2024/02/16 07:37:43;;;;;;;6.38;3.58;;;10.20;99.90;;;;;;5073630;28;20020;-56
2024/02/16 07:40:09;;;;;;;5.97;3.17;;;10.20;99.90;;;;;;5070413;28;20038;-56
2024/02/16 07:42:42;;;;;;;4.93;3.10;;;10.30;99.90;;;;;;5074413;28;20039;-56
2024/02/16 07:45:09;;;;;;;8.68;3.60;;;10.40;99.90;;;;;;5078083;28;20505;-56
2024/02/16 07:47:35;;;;;;;5.80;3.15;;;10.50;99.90;;;;;;5073542;28;20240;-56
2024/02/16 07:50:01;;;;;;;4.07;3.45;;;10.60;99.90;;;;;;5075518;28;20020;-56
2024/02/16 07:52:26;;;;;;;6.13;3.50;;;10.70;99.90;;;;;;5076279;28;20016;-56
2024/02/16 07:54:51;;;;;;;5.57;2.92;;;10.80;99.90;;;;;;5072870;28;20512;-56
2024/02/16 07:57:17;;;;;;;5.95;2.88;;;10.90;99.90;;;;;;5077290;28;20103;-56
2024/02/16 07:59:43;;;;;;;5.80;2.35;;;11.00;99.90;;;;;;5076489;28;20019;-56
2024/02/16 08:02:09;;;;;;;4.07;2.33;;;11.10;99.90;;;;;;5072776;28;20048;-56
2024/02/16 08:04:35;;;;;;;3.65;2.50;;;11.20;99.90;;;;;;5067298;28;20021;-56
2024/02/16 08:07:01;;;;;;;3.22;2.38;;;11.30;99.90;;;;;;5072703;28;20024;-56
2024/02/16 08:09:27;;;;;;;4.85;2.60;;;11.40;99.90;;;;;;5068076;28;20543;-56
2024/02/16 08:11:52;;;;;;;5.28;2.30;;;11.60;99.90;;;;;;5068708;28;20350;-56
2024/02/16 08:14:18;;;;;;;5.80;2.45;;;11.70;99.90;;;;;;5069538;28;20036;-57
2024/02/16 08:16:43;;;;;;;4.78;2.55;;;11.70;99.90;;;;;;5072646;28;20028;-57
2024/02/16 08:19:09;;;;;;;5.97;2.22;;;11.90;99.90;;;;;;5080544;28;20016;-57
2024/02/16 08:21:34;;;;;;;5.00;2.10;;;12.00;99.90;;;;;;5079059;28;20028;-57
2024/02/16 08:24:00;;;;;;;3.33;2.08;;;12.10;99.90;;;;;;5069474;28;20389;-57
2024/02/16 08:26:27;;;;;;;4.80;2.20;;;12.20;99.90;;;;;;5075328;28;20021;-57
2024/02/16 08:28:53;;;;;;;2.30;2.10;;;12.30;99.90;;;;;;5077007;28;20501;-57
2024/02/16 08:31:18;;;;;;;3.40;2.10;;;12.50;99.90;;;;;;5076614;28;20024;-57
2024/02/16 08:33:45;;;;;;;4.28;2.40;;;12.60;99.90;;;;;;5074114;28;20422;-57
2024/02/16 08:36:10;;;;;;;3.40;2.03;;;12.70;99.90;;;;;;5069151;28;20161;-57
2024/02/16 08:38:39;;;;;;;4.25;1.98;;;12.80;99.90;;;;;;5077015;28;20103;-57
2024/02/16 08:41:05;;;;;;;5.80;2.83;;;13.00;99.90;;;;;;5072490;28;20028;-57
2024/02/16 08:43:30;;;;;;;5.32;2.42;;;13.10;99.90;;;;;;5072546;28;20461;-57
2024/02/16 08:45:56;;;;;;;3.85;2.58;;;13.30;99.90;;;;;;5070547;28;20021;-57
2024/02/16 08:48:22;;;;;;;4.13;2.50;;;13.40;99.90;;;;;;5076284;28;20024;-57
2024/02/16 08:50:48;;;;;;;3.10;2.28;;;13.60;99.90;;;;;;5071442;28;20542;-57
2024/02/16 08:53:14;;;;;;;3.28;2.22;;;13.70;99.90;;;;;;5080069;28;20020;-57
2024/02/16 08:55:39;;;;;;;2.85;1.92;;;13.80;99.90;;;;;;5068081;28;20038;-57
2024/02/16 08:58:07;;;;;;;2.80;2.15;;;13.90;99.90;;;;;;5077931;28;20021;-57
2024/02/16 09:00:33;;;;;;;3.67;2.20;;;14.00;99.90;;;;;;5069230;28;20024;-57
2024/02/16 09:02:58;;;;;;;2.10;1.77;;;14.20;99.90;;;;;;5072688;28;20402;-57
2024/02/16 09:05:24;;;;;;;3.58;2.03;;;14.30;99.90;;;;;;5070074;28;20025;-57
2024/02/16 09:07:49;;;;;;;3.22;2.17;;;14.40;99.90;;;;;;5075831;28;20064;-57
2024/02/16 09:10:15;;;;;;;3.88;1.70;;;14.50;99.90;;;;;;5075549;28;20453;-57
2024/02/16 09:12:41;;;;;;;2.53;1.80;;;14.50;99.90;;;;;;5071595;28;20489;-57
2024/02/16 09:15:07;;;;;;;2.95;1.75;;;14.70;99.90;;;;;;5075738;28;20033;-57
2024/02/16 09:17:32;;;;;;;4.50;2.00;;;14.80;99.90;;;;;;5074651;28;20249;-57
2024/02/16 09:19:58;;;;;;;3.10;2.00;;;14.90;99.90;;;;;;5075546;28;20016;-57
2024/02/16 09:22:23;;;;;;;4.15;2.30;;;15.10;99.90;;;;;;5071456;28;20092;-57
2024/02/16 09:24:49;;;;;;;2.67;1.73;;;15.30;99.90;;;;;;5075291;28;20500;-57
2024/02/16 09:27:14;;;;;;;2.92;1.80;;;15.50;99.90;;;;;;5071206;28;20036;-57
2024/02/16 09:29:40;;;;;;;6.30;2.20;;;15.70;99.90;;;;;;5074347;28;20107;-57
2024/02/16 09:32:06;;;;;;;3.70;2.00;;;15.90;99.90;;;;;;5075359;28;20554;-57
2024/02/16 09:34:31;;;;;;;6.57;2.00;;;16.00;99.90;;;;;;5076998;28;20032;-57
2024/02/16 09:36:57;;;;;;;3.47;1.90;;;16.00;99.90;;;;;;5071240;28;20029;-57
2024/02/16 09:39:22;;;;;;;3.15;2.03;;;16.00;99.90;;;;;;5077815;28;20021;-57
2024/02/16 09:41:54;;;;;;;3.72;1.90;;;15.90;99.90;;;;;;5068846;28;20518;-57
2024/02/16 09:44:21;;;;;;;2.58;1.98;;;15.90;99.90;;;;;;5068366;28;20029;-57
2024/02/16 09:46:47;;;;;;;3.95;1.75;;;15.90;99.90;;;;;;5071499;28;20052;-57
2024/02/16 09:49:12;;;;;;;3.88;2.30;;;16.10;99.90;;;;;;5071157;28;20067;-57
2024/02/16 09:51:38;;;;;;;3.92;2.22;;;16.10;99.90;;;;;;5078121;28;20107;-57
2024/02/16 09:54:04;;;;;;;2.55;1.90;;;16.10;99.90;;;;;;5070434;28;20063;-57
2024/02/16 09:56:29;;;;;;;5.13;1.88;;;16.10;99.90;;;;;;5072190;28;20028;-57
2024/02/16 09:58:55;;;;;;;3.35;2.30;;;16.00;99.90;;;;;;5070854;28;20116;-57
2024/02/16 10:01:23;;;;;;;3.42;1.83;;;16.00;99.90;;;;;;5073902;28;20035;-57
2024/02/16 10:03:49;;;;;;;2.15;1.65;;;16.00;99.90;;;;;;5064956;28;20013;-57
2024/02/16 10:06:15;;;;;;;3.88;2.10;;;16.00;99.90;;;;;;5075166;28;20698;-56
2024/02/16 10:08:51;;;;;;;3.63;2.05;;;16.00;99.90;;;;;;5073808;28;20036;-57
2024/02/16 10:11:18;;;;;;;7.88;2.50;;;16.10;99.90;;;;;;5076545;28;20553;-57
2024/02/16 10:13:57;;;;;;;3.35;2.10;;;16.10;99.90;;;;;;5073647;28;20058;-56
2024/02/16 10:16:22;;;;;;;5.75;2.50;;;16.00;99.90;;;;;;5073912;28;20031;-57
2024/02/16 10:18:48;;;;;;;3.83;2.35;;;15.90;99.90;;;;;;5072999;28;20032;-57
2024/02/16 10:21:13;;;;;;;3.45;2.20;;;15.90;99.90;;;;;;5079621;28;20058;-59
2024/02/16 10:23:39;;;;;;;3.88;1.80;;;16.30;99.90;;;;;;5070912;28;20025;-57
2024/02/16 10:26:05;;;;;;;3.38;2.22;;;17.30;99.90;;;;;;5074911;28;20399;-57
2024/02/16 10:28:31;;;;;;;6.25;2.10;;;18.50;99.90;;;;;;5079121;28;20032;-57
2024/02/16 10:31:04;;;;;;;4.80;2.05;;;19.00;99.90;;;;;;5064923;28;20067;-57
2024/02/16 10:33:32;;;;;;;3.28;1.85;;;19.60;99.80;;;;;;5079133;28;20111;-56
2024/02/16 10:35:58;;;;;;;4.60;1.90;;;19.90;97.50;;;;;;5069383;28;20024;-58
2024/02/16 10:38:25;;;;;;;3.70;1.60;;;20.50;97.00;;;;;;5076857;28;20454;-57
2024/02/16 10:40:51;;;;;;;3.65;2.13;;;20.50;95.70;;;;;;5073771;28;20082;-57
2024/02/16 10:43:18;;;;;;;3.35;1.95;;;20.00;96.10;;;;;;5079584;28;20048;-57
2024/02/16 10:45:47;;;;;;;2.60;1.50;;;19.80;96.00;;;;;;5069828;28;20056;-57
2024/02/16 10:48:12;;;;;;;2.85;2.30;;;19.70;96.50;;;;;;5078318;28;20346;-57
2024/02/16 10:50:38;;;;;;;3.72;1.80;;;19.70;96.40;;;;;;5077331;28;20493;-57
2024/02/16 10:53:25;;;;;;;5.60;2.10;;;19.50;97.10;;;;;;5072417;28;20391;-57
2024/02/16 10:55:51;;;;;;;4.75;2.10;;;20.00;95.80;;;;;;5071319;28;20410;-57
2024/02/16 10:58:20;;;;;;;4.82;2.58;;;20.00;96.30;;;;;;5071660;28;20028;-57
2024/02/16 11:00:53;;;;;;;6.13;2.47;;;19.80;96.60;;;;;;5072690;28;20024;-57
2024/02/16 11:03:25;;;;;;;6.22;2.22;;;19.60;96.90;;;;;;5075470;28;20023;-57
2024/02/16 11:05:51;;;;;;;3.85;2.42;;;19.50;96.90;;;;;;5067530;28;20029;-57
2024/02/16 11:08:23;;;;;;;7.30;2.60;;;19.50;96.90;;;;;;5070465;28;20037;-57
2024/02/16 11:10:59;;;;;;;6.57;3.08;;;19.50;96.40;;;;;;5067338;28;20063;-57
2024/02/16 11:13:26;;;;;;;3.72;2.35;;;20.30;95.80;;;;;;5069079;28;20123;-57
2024/02/16 11:16:04;;;;;;;7.95;2.80;;;20.40;95.40;;;;;;5074686;28;20511;-57
2024/02/16 11:18:30;;;;;;;5.25;2.70;;;20.30;95.30;;;;;;5069129;28;20028;-57
2024/02/16 11:21:00;;;;;;;3.35;2.35;;;20.20;95.50;;;;;;5074753;28;20031;-57
2024/02/16 11:23:30;;;;;;;4.47;2.58;;;20.10;94.80;;;;;;5074401;28;20143;-57
2024/02/16 11:26:11;;;;;;;7.32;2.90;;;20.20;95.30;;;;;;5074222;28;20108;-57
2024/02/16 11:28:38;;;;;;;5.57;2.75;;;20.30;95.60;;;;;;5067067;28;20020;-57
2024/02/16 11:31:04;;;;;;;6.55;2.70;;;20.50;95.10;;;;;;5071816;28;20489;-57
2024/02/16 11:33:30;;;;;;;3.80;2.45;;;20.30;94.90;;;;;;5071919;28;20028;-57
2024/02/16 11:35:57;;;;;;;4.90;2.50;;;20.20;94.60;;;;;;5069894;28;20035;-57
2024/02/16 11:38:24;;;;;;;6.97;3.53;;;20.10;95.50;;;;;;5068203;28;20032;-57
2024/02/16 11:40:57;;;;;;;4.82;2.80;;;20.20;95.00;;;;;;5073825;28;20271;-57
2024/02/16 11:43:23;;;;;;;5.18;2.60;;;20.20;95.50;;;;;;5071252;28;20015;-57
2024/02/16 11:45:49;;;;;;;9.88;3.70;;;20.40;95.20;;;;;;5071315;28;20031;-57
2024/02/16 11:48:22;;;;;;;8.07;2.45;;;20.80;93.70;;;;;;5070280;28;20033;-57
2024/02/16 11:50:48;;;;;;;4.72;2.60;;;20.80;94.10;;;;;;5061846;28;20020;-57
2024/02/16 11:53:21;;;;;;;10.10;2.80;;;20.70;94.00;;;;;;5070453;28;20047;-57
2024/02/16 11:55:48;;;;;;;3.88;2.60;;;20.40;94.00;;;;;;5070133;28;20540;-57
2024/02/16 11:58:16;;;;;;;3.33;2.30;;;20.00;95.10;;;;;;5068183;28;20021;-57
2024/02/16 12:00:42;;;;;;;6.07;2.63;;;19.90;95.10;;;;;;5070597;28;20146;-57
2024/02/16 12:03:07;;;;;;;5.40;2.90;;;19.80;94.80;;;;;;5069239;28;20059;-57
2024/02/16 12:05:33;;;;;;;5.38;2.47;;;19.60;95.60;;;;;;5066295;28;20039;-57
2024/02/16 12:07:59;;;;;;;3.80;2.28;;;19.40;95.90;;;;;;5069503;28;20028;-57
2024/02/16 12:10:25;;;;;;;5.68;2.75;;;19.20;96.50;;;;;;5075674;28;20035;-57
2024/02/16 12:12:51;;;;;;;6.68;2.70;;;19.00;97.50;;;;;;5073133;28;20071;-57
2024/02/16 12:15:19;;;;;;;6.88;2.47;;;18.60;97.80;;;;;;5067984;28;20051;-57
2024/02/16 12:17:45;;;;;;;4.15;2.63;;;18.10;98.60;;;;;;5073564;28;20375;-57
2024/02/16 12:20:15;;;;;;;3.80;2.40;;;17.80;99.00;;;;;;5073132;28;20013;-56
2024/02/16 12:22:40;;;;;;;5.23;2.57;;;17.70;99.60;;;;;;5070515;28;20197;-57
2024/02/16 12:25:06;;;;;;;5.43;2.60;;;17.50;99.80;;;;;;5067377;28;20641;-57
2024/02/16 12:27:32;;;;;;;3.33;2.28;;;17.40;99.90;;;;;;5071671;28;20598;-57
2024/02/16 12:29:57;;;;;;;11.52;2.58;;;17.20;99.90;;;;;;5070052;28;20112;-57
2024/02/16 12:32:23;;;;;;;4.57;2.17;;;17.00;99.90;;;;;;5069954;28;20022;-57
2024/02/16 12:34:49;;;;;;;7.97;2.80;;;17.00;99.90;;;;;;5067238;28;20099;-57
2024/02/16 12:37:14;;;;;;;4.15;2.35;;;16.90;99.90;;;;;;5068355;28;20051;-57
2024/02/16 12:39:40;;;;;;;4.30;2.42;;;16.90;99.90;;;;;;5071762;28;20036;-56
2024/02/16 12:42:06;;;;;;;5.18;2.53;;;16.90;99.90;;;;;;5071412;28;20162;-57
2024/02/16 12:44:32;;;;;;;3.63;2.65;;;16.80;99.90;;;;;;5069297;28;20059;-56